Time;durP1;ratioP1;P1;durP2;ratioP2;P2;SDS_P1;SDS_P2;PMS_P1;PMS_P2;Temp;Humidity;BMP_temperature;BMP_pressure;BME280_temperature;BME280_humidity;BME280_pressure;Samples;Min_cycle;Max_cycle;Signal;HPM_P1;HPM_P2
2022/11/30 00:00:54;;;;;;;4.68;4.18;;;19.30;99.90;;;;;;4237568;27;20623;-73
2022/11/30 00:02:56;;;;;;;5.05;4.57;;;19.30;99.90;;;;;;4231145;27;20214;-73
2022/11/30 00:04:59;;;;;;;4.95;4.38;;;19.30;99.90;;;;;;4237462;27;20206;-73
2022/11/30 00:07:01;;;;;;;5.15;4.50;;;19.30;99.90;;;;;;4230282;27;20217;-73
2022/11/30 00:09:03;;;;;;;5.45;4.55;;;19.30;99.90;;;;;;4233337;27;20254;-73
2022/11/30 00:11:10;;;;;;;5.00;4.50;;;19.30;99.90;;;;;;4242725;27;20221;-73
2022/11/30 00:13:12;;;;;;;5.47;4.95;;;19.30;99.90;;;;;;4239759;27;20222;-73
2022/11/30 00:15:16;;;;;;;4.63;4.22;;;19.30;99.90;;;;;;4235774;27;20254;-73
2022/11/30 00:17:20;;;;;;;4.97;4.45;;;19.30;99.90;;;;;;4241632;27;20626;-73
2022/11/30 00:19:22;;;;;;;4.85;4.35;;;19.30;99.90;;;;;;4235738;27;20239;-73
2022/11/30 00:21:24;;;;;;;4.57;4.13;;;19.30;99.90;;;;;;4234886;27;20242;-73
2022/11/30 00:23:27;;;;;;;5.15;4.35;;;19.30;99.90;;;;;;4229355;27;20716;-73
2022/11/30 00:25:29;;;;;;;4.63;4.13;;;19.30;99.90;;;;;;4242173;27;20212;-73
2022/11/30 00:27:32;;;;;;;5.50;4.38;;;19.30;99.90;;;;;;4236787;27;20233;-73
2022/11/30 00:29:35;;;;;;;4.60;4.20;;;19.30;99.90;;;;;;4233926;27;20275;-73
2022/11/30 00:31:37;;;;;;;4.82;4.32;;;19.30;99.90;;;;;;4230604;27;20221;-73
2022/11/30 00:33:41;;;;;;;4.75;4.28;;;19.30;99.90;;;;;;4230643;27;20614;-73
2022/11/30 00:35:43;;;;;;;4.32;3.92;;;19.30;99.90;;;;;;4237626;27;20217;-73
2022/11/30 00:37:46;;;;;;;4.57;4.10;;;19.20;99.90;;;;;;4240364;27;20278;-73
2022/11/30 00:39:48;;;;;;;4.70;4.30;;;19.20;99.90;;;;;;4240438;27;20238;-73
2022/11/30 00:41:50;;;;;;;4.75;4.35;;;19.20;99.90;;;;;;4243270;27;20216;-73
2022/11/30 00:43:53;;;;;;;4.97;3.97;;;19.20;99.90;;;;;;4230970;27;20658;-73
2022/11/30 00:45:56;;;;;;;5.68;4.18;;;19.20;99.90;;;;;;4241010;27;20212;-73
2022/11/30 00:47:58;;;;;;;5.35;4.10;;;19.20;99.90;;;;;;4231812;27;20275;-73
2022/11/30 00:50:02;;;;;;;5.68;3.90;;;19.20;99.90;;;;;;4241878;27;20217;-73
2022/11/30 00:52:05;;;;;;;4.63;4.10;;;19.20;99.90;;;;;;4240816;27;20291;-73
2022/11/30 00:54:07;;;;;;;5.38;4.15;;;19.20;99.90;;;;;;4242964;27;20278;-73
2022/11/30 00:56:10;;;;;;;4.28;3.83;;;19.20;99.90;;;;;;4240429;27;20213;-73
2022/11/30 00:58:13;;;;;;;4.68;4.28;;;19.20;99.90;;;;;;4231665;28;20210;-73
2022/11/30 01:00:15;;;;;;;4.60;4.20;;;19.20;99.90;;;;;;4230911;27;20267;-73
2022/11/30 01:02:18;;;;;;;4.65;4.07;;;19.20;99.90;;;;;;4242013;27;20647;-74
2022/11/30 01:04:20;;;;;;;4.72;4.18;;;19.20;99.90;;;;;;4245781;27;20212;-73
2022/11/30 01:06:24;;;;;;;4.55;4.00;;;19.10;99.90;;;;;;4229397;27;20217;-73
2022/11/30 01:08:26;;;;;;;4.10;3.50;;;19.10;99.90;;;;;;4231040;28;20287;-73
2022/11/30 01:10:29;;;;;;;4.90;3.78;;;19.10;99.90;;;;;;4232243;27;20217;-73
2022/11/30 01:12:31;;;;;;;4.40;4.00;;;19.10;99.90;;;;;;4238561;28;20239;-73
2022/11/30 01:14:33;;;;;;;3.95;3.60;;;19.10;99.90;;;;;;4236882;28;21012;-73
2022/11/30 01:16:36;;;;;;;5.55;4.22;;;19.10;99.90;;;;;;4240583;28;20718;-73
2022/11/30 01:18:38;;;;;;;3.50;3.20;;;19.10;99.90;;;;;;4233050;28;21092;-73
2022/11/30 01:20:42;;;;;;;4.88;4.38;;;19.10;99.90;;;;;;4241882;28;20250;-73
2022/11/30 01:22:45;;;;;;;4.35;3.90;;;19.10;99.90;;;;;;4222404;28;20210;-73
2022/11/30 01:24:48;;;;;;;3.97;3.58;;;19.10;99.90;;;;;;4218074;28;20260;-73
2022/11/30 01:26:50;;;;;;;4.25;3.83;;;19.10;99.90;;;;;;4243737;28;20205;-73
2022/11/30 01:28:54;;;;;;;4.25;3.80;;;19.10;99.90;;;;;;4233386;28;20251;-73
2022/11/30 01:30:58;;;;;;;4.28;3.85;;;19.10;99.90;;;;;;4222401;28;20205;-74
2022/11/30 01:33:02;;;;;;;4.85;3.92;;;19.10;99.90;;;;;;4223277;28;20217;-73
2022/11/30 01:35:05;;;;;;;3.92;3.40;;;19.00;99.90;;;;;;4218999;28;20214;-73
2022/11/30 01:37:08;;;;;;;4.25;3.85;;;19.10;99.90;;;;;;4226671;28;20218;-73
2022/11/30 01:39:11;;;;;;;4.28;3.80;;;19.10;99.90;;;;;;4224860;28;20268;-73
2022/11/30 01:41:17;;;;;;;4.63;3.88;;;19.10;99.90;;;;;;4218838;28;20268;-74
2022/11/30 01:43:20;;;;;;;4.20;3.80;;;19.00;99.90;;;;;;4223328;28;20259;-73
2022/11/30 01:45:22;;;;;;;4.00;3.60;;;19.10;99.90;;;;;;4217698;28;20214;-73
2022/11/30 01:47:32;;;;;;;4.30;3.90;;;19.10;99.90;;;;;;4216301;28;20214;-73
2022/11/30 01:49:37;;;;;;;3.95;3.50;;;19.00;99.90;;;;;;4218585;28;20238;-73
2022/11/30 01:51:43;;;;;;;4.43;4.03;;;19.00;99.90;;;;;;4220128;28;20745;-73
2022/11/30 01:53:46;;;;;;;4.32;3.92;;;19.00;99.90;;;;;;4218632;28;20259;-73
2022/11/30 01:55:49;;;;;;;4.35;3.95;;;19.00;99.90;;;;;;4222416;28;20666;-73
2022/11/30 01:57:56;;;;;;;4.43;4.00;;;19.00;99.90;;;;;;4220694;28;20215;-73
2022/11/30 02:00:03;;;;;;;4.20;3.80;;;19.00;99.90;;;;;;4221154;28;20221;-73
2022/11/30 02:02:05;;;;;;;4.22;3.83;;;19.00;99.90;;;;;;4219638;28;20715;-73
2022/11/30 02:04:12;;;;;;;4.82;3.80;;;19.00;99.90;;;;;;4219668;28;20885;-74
2022/11/30 02:06:15;;;;;;;5.10;4.15;;;19.10;99.90;;;;;;4217987;28;20976;-73
2022/11/30 02:08:19;;;;;;;4.50;3.90;;;19.00;99.90;;;;;;4221862;28;20288;-73
2022/11/30 02:10:25;;;;;;;4.25;3.85;;;19.00;99.90;;;;;;4221050;28;20263;-73
2022/11/30 02:12:37;;;;;;;3.92;3.53;;;19.00;99.90;;;;;;4206118;28;20287;-73
2022/11/30 02:14:45;;;;;;;4.38;3.60;;;19.00;99.90;;;;;;4215561;28;20642;-73
2022/11/30 02:16:57;;;;;;;4.32;3.92;;;19.00;99.90;;;;;;4218357;28;20213;-73
2022/11/30 02:19:12;;;;;;;6.07;4.28;;;19.00;99.90;;;;;;4217854;28;20658;-73
2022/11/30 02:21:17;;;;;;;4.90;4.00;;;19.00;99.90;;;;;;4221671;28;20738;-73
2022/11/30 02:23:39;;;;;;;4.57;4.15;;;19.00;99.90;;;;;;4230490;28;20259;-73
2022/11/30 02:25:50;;;;;;;5.03;4.30;;;19.00;99.90;;;;;;4224157;28;20217;-73
2022/11/30 02:28:12;;;;;;;5.57;4.03;;;19.00;99.90;;;;;;4214786;28;20222;-73
2022/11/30 02:30:18;;;;;;;4.30;3.90;;;19.00;99.90;;;;;;4227918;28;20259;-73
2022/11/30 02:32:27;;;;;;;4.40;4.00;;;19.00;99.90;;;;;;4216708;28;20217;-74
2022/11/30 02:34:31;;;;;;;5.00;3.95;;;18.90;99.90;;;;;;4219125;28;20206;-73
2022/11/30 02:36:34;;;;;;;4.45;4.00;;;19.00;99.90;;;;;;4213682;28;20605;-73
2022/11/30 02:38:38;;;;;;;4.40;3.95;;;19.00;99.90;;;;;;4215010;28;20260;-73
2022/11/30 02:40:40;;;;;;;4.95;3.95;;;18.90;99.90;;;;;;4226686;28;20214;-73
2022/11/30 02:42:43;;;;;;;4.80;3.92;;;18.90;99.90;;;;;;4226532;28;20210;-73
2022/11/30 02:44:48;;;;;;;3.92;3.55;;;18.90;99.90;;;;;;4210628;28;20564;-73
2022/11/30 02:47:12;;;;;;;4.30;3.80;;;18.90;99.90;;;;;;4227662;28;20222;-73
2022/11/30 02:49:23;;;;;;;5.85;4.03;;;18.90;99.90;;;;;;4218571;28;20279;-73
2022/11/30 02:51:29;;;;;;;4.22;3.72;;;18.90;99.90;;;;;;4217369;28;20210;-73
2022/11/30 02:53:32;;;;;;;4.60;4.10;;;18.90;99.90;;;;;;4225451;28;20266;-73
2022/11/30 02:55:34;;;;;;;5.78;4.15;;;18.90;99.90;;;;;;4226082;28;20218;-73
2022/11/30 02:57:37;;;;;;;5.32;4.22;;;18.90;99.90;;;;;;4229016;27;20254;-74
2022/11/30 02:59:40;;;;;;;6.30;4.22;;;18.90;99.90;;;;;;4226345;28;20243;-73
2022/11/30 03:01:42;;;;;;;4.55;4.00;;;18.90;99.90;;;;;;4228561;28;20650;-73
2022/11/30 03:03:46;;;;;;;4.72;4.22;;;18.90;99.90;;;;;;4222837;28;20260;-73
2022/11/30 03:05:48;;;;;;;4.47;3.85;;;18.90;99.90;;;;;;4219683;28;20256;-73
2022/11/30 03:07:50;;;;;;;4.32;3.92;;;18.90;99.90;;;;;;4226338;28;21026;-73
2022/11/30 03:09:53;;;;;;;4.38;3.83;;;18.90;99.90;;;;;;4224171;28;20291;-73
2022/11/30 03:11:55;;;;;;;6.40;4.07;;;18.90;99.90;;;;;;4223411;28;20218;-73
2022/11/30 03:13:57;;;;;;;7.57;4.40;;;18.90;99.90;;;;;;4219916;28;20218;-73
2022/11/30 03:16:06;;;;;;;5.00;4.50;;;18.90;99.90;;;;;;4217215;28;20742;-73
2022/11/30 03:18:08;;;;;;;5.28;4.05;;;18.90;99.90;;;;;;4226452;28;20751;-73
2022/11/30 03:20:12;;;;;;;4.57;3.97;;;18.90;99.90;;;;;;4221585;28;20263;-73
2022/11/30 03:22:14;;;;;;;5.03;4.30;;;18.90;99.90;;;;;;4231026;27;20229;-73
2022/11/30 03:24:18;;;;;;;4.70;4.20;;;18.90;99.90;;;;;;4230349;27;20233;-73
2022/11/30 03:26:20;;;;;;;4.50;4.10;;;18.90;99.90;;;;;;4236535;27;20226;-73
2022/11/30 03:28:23;;;;;;;5.38;4.18;;;18.90;99.90;;;;;;4239428;27;20217;-73
2022/11/30 03:30:25;;;;;;;4.40;3.95;;;18.80;99.90;;;;;;4236220;27;20242;-73
2022/11/30 03:32:29;;;;;;;4.70;4.18;;;18.80;99.90;;;;;;4227784;27;20225;-73
2022/11/30 03:34:31;;;;;;;5.03;3.90;;;18.80;99.90;;;;;;4233012;27;20786;-73
2022/11/30 03:36:35;;;;;;;4.35;3.95;;;18.80;99.90;;;;;;4226025;27;20213;-73
2022/11/30 03:38:38;;;;;;;5.10;4.22;;;18.80;99.90;;;;;;4237466;27;20209;-73
2022/11/30 03:40:40;;;;;;;4.60;3.90;;;18.80;99.90;;;;;;4227335;27;20202;-73
2022/11/30 03:42:42;;;;;;;5.03;4.53;;;18.80;99.90;;;;;;4234333;27;20325;-73
2022/11/30 03:44:45;;;;;;;5.15;4.15;;;18.80;99.90;;;;;;4239112;27;20228;-73
2022/11/30 03:46:47;;;;;;;5.00;4.40;;;18.80;99.90;;;;;;4232593;27;20270;-73
2022/11/30 03:48:49;;;;;;;5.22;4.13;;;18.80;99.90;;;;;;4229760;28;20266;-73
2022/11/30 03:50:52;;;;;;;5.35;4.30;;;18.80;99.90;;;;;;4235860;27;20212;-73
2022/11/30 03:52:55;;;;;;;5.65;4.53;;;18.80;99.90;;;;;;4239963;27;20202;-73
2022/11/30 03:54:58;;;;;;;5.43;4.32;;;18.80;99.90;;;;;;4233135;27;20214;-73
2022/11/30 03:57:00;;;;;;;5.63;4.45;;;18.80;99.90;;;;;;4229192;28;20607;-73
2022/11/30 03:59:02;;;;;;;5.00;4.30;;;18.80;99.90;;;;;;4224441;28;20227;-73
2022/11/30 04:01:07;;;;;;;4.65;4.10;;;18.80;99.90;;;;;;4234212;27;20316;-73
2022/11/30 04:03:09;;;;;;;5.78;4.72;;;18.80;99.90;;;;;;4233907;27;20235;-73
2022/11/30 04:05:12;;;;;;;5.38;4.00;;;18.70;99.90;;;;;;4230728;27;20275;-73
2022/11/30 04:07:14;;;;;;;5.20;4.65;;;18.70;99.90;;;;;;4229711;27;20218;-73
2022/11/30 04:09:18;;;;;;;5.43;4.78;;;18.80;99.90;;;;;;4238300;27;20757;-73
2022/11/30 04:11:20;;;;;;;5.40;4.63;;;18.70;99.90;;;;;;4231869;27;20205;-73
2022/11/30 04:13:24;;;;;;;5.78;4.50;;;18.70;99.90;;;;;;4231449;27;20217;-73
2022/11/30 04:15:26;;;;;;;5.28;4.47;;;18.70;99.90;;;;;;4239172;27;20258;-73
2022/11/30 04:17:29;;;;;;;5.22;4.63;;;18.80;99.90;;;;;;4236285;27;20254;-73
2022/11/30 04:19:31;;;;;;;5.28;4.60;;;18.70;99.90;;;;;;4233235;27;20209;-73
2022/11/30 04:21:33;;;;;;;6.05;4.53;;;18.70;99.90;;;;;;4229149;27;20256;-73
2022/11/30 04:23:37;;;;;;;5.07;4.45;;;18.70;99.90;;;;;;4224675;28;20225;-73
2022/11/30 04:25:42;;;;;;;5.60;4.53;;;18.70;99.90;;;;;;4224783;28;20218;-73
2022/11/30 04:27:46;;;;;;;5.40;4.72;;;18.70;99.90;;;;;;4215346;28;20206;-72
2022/11/30 04:29:48;;;;;;;5.63;4.70;;;18.70;99.90;;;;;;4216180;28;20230;-73
2022/11/30 04:31:51;;;;;;;4.55;3.95;;;18.70;99.90;;;;;;4233833;27;20217;-73
2022/11/30 04:33:54;;;;;;;5.53;4.90;;;18.70;99.90;;;;;;4225531;28;20312;-73
2022/11/30 04:35:58;;;;;;;5.85;4.70;;;18.70;99.90;;;;;;4218565;28;20267;-73
2022/11/30 04:38:01;;;;;;;5.38;4.70;;;18.70;99.90;;;;;;4216751;28;20793;-73
2022/11/30 04:40:04;;;;;;;6.50;4.97;;;18.70;99.90;;;;;;4224974;28;20272;-73
2022/11/30 04:42:07;;;;;;;6.05;4.80;;;18.70;99.90;;;;;;4223699;28;20234;-73
2022/11/30 04:44:10;;;;;;;4.88;4.38;;;18.70;99.90;;;;;;4224354;28;20218;-73
2022/11/30 04:46:12;;;;;;;5.32;4.65;;;18.70;99.90;;;;;;4222319;28;20226;-73
2022/11/30 04:48:16;;;;;;;5.45;4.80;;;18.60;99.90;;;;;;4225876;28;20622;-73
2022/11/30 04:50:18;;;;;;;5.55;4.93;;;18.70;99.90;;;;;;4216603;28;20780;-73
2022/11/30 04:52:20;;;;;;;6.10;4.93;;;18.60;99.90;;;;;;4222655;28;20222;-73
2022/11/30 04:54:23;;;;;;;6.45;5.20;;;18.70;99.90;;;;;;4219705;28;20616;-73
2022/11/30 04:56:25;;;;;;;6.03;4.93;;;18.60;99.90;;;;;;4217465;28;20250;-73
2022/11/30 04:58:29;;;;;;;6.70;5.32;;;18.60;99.90;;;;;;4227541;28;20275;-73
2022/11/30 05:00:31;;;;;;;6.57;5.00;;;18.60;99.90;;;;;;4223866;28;20210;-73
2022/11/30 05:02:34;;;;;;;5.30;4.80;;;18.60;99.90;;;;;;4220792;28;20214;-73
2022/11/30 05:04:36;;;;;;;5.97;4.72;;;18.60;99.90;;;;;;4217507;28;20210;-73
2022/11/30 05:06:38;;;;;;;7.28;5.40;;;18.60;99.90;;;;;;4224733;28;20209;-73
2022/11/30 05:08:40;;;;;;;6.70;5.45;;;18.60;99.90;;;;;;4224512;28;20255;-73
2022/11/30 05:10:43;;;;;;;6.45;5.32;;;18.60;99.90;;;;;;4217465;28;20290;-73
2022/11/30 05:12:45;;;;;;;7.15;5.80;;;18.60;99.90;;;;;;4217355;28;20217;-73
2022/11/30 05:14:49;;;;;;;7.10;5.15;;;18.60;99.90;;;;;;4214085;28;20272;-73
2022/11/30 05:16:51;;;;;;;6.85;5.50;;;18.60;99.90;;;;;;4220251;28;20206;-73
2022/11/30 05:18:54;;;;;;;5.70;4.88;;;18.60;99.90;;;;;;4221839;28;20214;-73
2022/11/30 05:20:56;;;;;;;6.07;5.10;;;18.60;99.90;;;;;;4224874;28;20214;-73
2022/11/30 05:22:58;;;;;;;6.25;5.40;;;18.60;99.90;;;;;;4238879;28;20206;-73
2022/11/30 05:25:00;;;;;;;6.10;5.10;;;18.60;99.90;;;;;;4229882;28;20263;-73
2022/11/30 05:27:03;;;;;;;6.22;4.88;;;18.60;99.90;;;;;;4233152;28;20278;-73
2022/11/30 05:29:05;;;;;;;6.20;4.57;;;18.60;99.90;;;;;;4234912;28;20218;-73
2022/11/30 05:31:09;;;;;;;6.47;5.53;;;18.50;99.90;;;;;;4238864;28;20253;-73
2022/11/30 05:33:12;;;;;;;6.35;4.97;;;18.50;99.90;;;;;;4233881;27;20218;-73
2022/11/30 05:35:14;;;;;;;8.30;5.57;;;18.60;99.90;;;;;;4237953;28;20604;-73
2022/11/30 05:37:17;;;;;;;6.10;5.18;;;18.50;99.90;;;;;;4238086;28;20213;-73
2022/11/30 05:39:19;;;;;;;6.25;5.22;;;18.60;99.90;;;;;;4234853;28;20262;-73
2022/11/30 05:41:21;;;;;;;6.32;5.50;;;18.60;99.90;;;;;;4232509;28;20259;-73
2022/11/30 05:43:24;;;;;;;6.45;5.15;;;18.50;99.90;;;;;;4252453;27;20224;-73
2022/11/30 05:45:26;;;;;;;7.07;5.03;;;18.50;99.90;;;;;;4241935;27;20709;-73
2022/11/30 05:47:30;;;;;;;6.25;5.50;;;18.50;99.90;;;;;;4228909;28;20609;-73
2022/11/30 05:49:33;;;;;;;7.28;5.15;;;18.50;99.90;;;;;;4240466;28;20217;-73
2022/11/30 05:51:35;;;;;;;6.75;5.40;;;18.50;99.90;;;;;;4236086;28;20334;-73
2022/11/30 05:53:37;;;;;;;7.88;5.80;;;18.50;99.90;;;;;;4234363;27;20654;-73
2022/11/30 05:55:40;;;;;;;9.45;6.15;;;18.60;99.90;;;;;;4233092;27;20271;-73
2022/11/30 05:57:42;;;;;;;8.00;6.10;;;18.50;99.90;;;;;;4248387;27;20701;-73
2022/11/30 05:59:44;;;;;;;7.43;5.82;;;18.50;99.90;;;;;;4240254;27;20221;-73
2022/11/30 06:01:47;;;;;;;5.57;4.85;;;18.50;99.90;;;;;;4237403;27;20958;-73
2022/11/30 06:03:51;;;;;;;8.10;5.88;;;18.60;99.90;;;;;;4233773;27;20218;-73
2022/11/30 06:05:53;;;;;;;7.10;5.40;;;18.60;99.90;;;;;;4232648;27;20217;-73
2022/11/30 06:07:58;;;;;;;6.95;5.32;;;18.60;99.90;;;;;;4241156;27;20706;-73
2022/11/30 06:10:01;;;;;;;6.57;5.40;;;18.70;99.90;;;;;;4238055;27;20259;-73
2022/11/30 06:12:03;;;;;;;7.72;5.53;;;18.70;99.90;;;;;;4233957;27;20217;-73
2022/11/30 06:14:05;;;;;;;7.82;5.88;;;18.70;99.90;;;;;;4238084;27;20217;-73
2022/11/30 06:16:08;;;;;;;6.95;5.40;;;18.70;99.90;;;;;;4229030;27;20210;-73
2022/11/30 06:18:12;;;;;;;7.35;5.43;;;18.70;99.90;;;;;;4245130;27;20221;-73
2022/11/30 06:20:16;;;;;;;6.68;5.82;;;18.80;99.90;;;;;;4242667;27;20608;-73
2022/11/30 06:22:19;;;;;;;7.70;5.72;;;18.80;99.90;;;;;;4238676;27;20245;-73
2022/11/30 06:24:21;;;;;;;6.65;5.63;;;18.80;99.90;;;;;;4239328;27;20263;-73
2022/11/30 06:26:23;;;;;;;7.30;5.10;;;18.80;99.90;;;;;;4239768;27;20217;-73
2022/11/30 06:28:26;;;;;;;7.90;5.57;;;18.80;99.90;;;;;;4243129;27;20272;-73
2022/11/30 06:30:28;;;;;;;9.32;5.70;;;18.90;99.90;;;;;;4237245;27;20241;-73
2022/11/30 06:32:30;;;;;;;6.82;5.43;;;18.90;99.90;;;;;;4243505;27;20665;-73
2022/11/30 06:34:33;;;;;;;8.27;5.70;;;18.90;99.90;;;;;;4230788;27;20218;-75
2022/11/30 06:36:37;;;;;;;7.72;6.07;;;19.00;99.90;;;;;;4244792;27;20231;-72
2022/11/30 06:38:39;;;;;;;9.50;6.35;;;19.00;99.90;;;;;;4242950;27;20665;-72
2022/11/30 06:40:41;;;;;;;7.30;5.45;;;19.10;99.90;;;;;;4235798;27;20220;-72
2022/11/30 06:42:44;;;;;;;7.13;5.70;;;19.10;99.90;;;;;;4237703;27;20266;-72
2022/11/30 06:44:47;;;;;;;7.40;5.30;;;19.10;99.90;;;;;;4241066;27;20267;-72
2022/11/30 06:46:49;;;;;;;11.00;6.85;;;19.10;99.90;;;;;;4232412;27;20214;-72
2022/11/30 06:48:51;;;;;;;8.13;5.68;;;19.10;99.90;;;;;;4238934;27;20282;-74
2022/11/30 06:50:54;;;;;;;7.25;6.10;;;19.10;99.90;;;;;;4242239;27;20240;-74
2022/11/30 06:52:57;;;;;;;6.85;5.60;;;19.20;99.90;;;;;;4237073;27;20213;-74
2022/11/30 06:55:00;;;;;;;9.05;6.35;;;19.20;99.90;;;;;;4236444;27;20267;-74
2022/11/30 06:57:02;;;;;;;8.00;5.75;;;19.20;99.90;;;;;;4239327;27;20210;-74
2022/11/30 06:59:04;;;;;;;9.27;5.93;;;19.30;99.90;;;;;;4235564;27;20210;-74
2022/11/30 07:01:08;;;;;;;7.82;6.03;;;19.30;99.90;;;;;;4241125;27;20564;-74
2022/11/30 07:03:11;;;;;;;9.18;5.97;;;19.30;99.90;;;;;;4229693;28;20236;-75
2022/11/30 07:05:14;;;;;;;8.27;5.47;;;19.30;99.90;;;;;;4235059;27;20221;-75
2022/11/30 07:07:18;;;;;;;7.57;5.70;;;19.30;99.90;;;;;;4232986;27;20209;-75
2022/11/30 07:09:23;;;;;;;6.80;5.68;;;19.30;99.90;;;;;;4243389;27;20221;-74
2022/11/30 07:11:26;;;;;;;8.57;6.03;;;19.30;99.90;;;;;;4238964;27;20237;-74
2022/11/30 07:13:28;;;;;;;7.55;6.00;;;19.40;99.90;;;;;;4235930;27;20259;-75
2022/11/30 07:15:31;;;;;;;6.75;5.30;;;19.30;99.90;;;;;;4241642;27;20213;-75
2022/11/30 07:17:33;;;;;;;8.05;5.60;;;19.40;99.90;;;;;;4234528;27;20225;-75
2022/11/30 07:19:35;;;;;;;8.13;6.13;;;19.40;99.90;;;;;;4231564;27;20277;-74
2022/11/30 07:21:38;;;;;;;7.93;5.82;;;19.40;99.90;;;;;;4243303;27;20302;-74
2022/11/30 07:26:09;;;;;;;9.90;6.45;;;19.40;99.90;;;;;;4236134;27;20202;-74
2022/11/30 07:28:11;;;;;;;8.70;5.57;;;19.40;99.90;;;;;;4231013;27;20291;-74
2022/11/30 07:30:14;;;;;;;7.30;6.03;;;19.40;99.90;;;;;;4229985;27;20229;-75
2022/11/30 07:32:16;;;;;;;6.90;5.50;;;19.40;99.90;;;;;;4239978;27;20278;-74
2022/11/30 07:34:19;;;;;;;9.00;6.15;;;19.50;99.90;;;;;;4237104;27;20226;-75
2022/11/30 07:36:24;;;;;;;6.85;5.63;;;19.50;99.90;;;;;;4232639;27;20213;-74
2022/11/30 07:38:26;;;;;;;7.57;5.75;;;19.50;99.90;;;;;;4243949;27;20638;-75
2022/11/30 07:40:28;;;;;;;7.35;5.85;;;19.50;99.90;;;;;;4233414;27;20221;-74
2022/11/30 07:42:32;;;;;;;9.27;5.88;;;19.50;99.90;;;;;;4238066;27;20700;-75
2022/11/30 07:44:35;;;;;;;7.40;5.43;;;19.50;99.90;;;;;;4244564;27;20269;-74
2022/11/30 07:46:38;;;;;;;7.80;5.70;;;19.50;99.90;;;;;;4242662;27;20609;-74
2022/11/30 07:48:41;;;;;;;7.72;5.75;;;19.50;99.90;;;;;;4230423;27;20210;-75
2022/11/30 07:50:43;;;;;;;7.28;5.60;;;19.60;99.90;;;;;;4237934;27;20545;-74
2022/11/30 07:52:46;;;;;;;7.32;6.18;;;19.50;99.90;;;;;;4234510;27;20302;-75
2022/11/30 07:54:48;;;;;;;7.82;5.85;;;19.50;99.90;;;;;;4244930;27;20285;-75
2022/11/30 07:56:50;;;;;;;8.70;6.57;;;19.60;99.90;;;;;;4243932;27;20274;-74
2022/11/30 07:58:56;;;;;;;8.32;6.18;;;19.60;99.90;;;;;;4246251;27;20204;-74
2022/11/30 08:01:03;;;;;;;8.57;6.00;;;19.60;99.90;;;;;;4238633;27;20265;-77
2022/11/30 08:03:05;;;;;;;10.00;7.32;;;19.60;99.90;;;;;;4228951;27;20218;-78
2022/11/30 08:05:10;;;;;;;7.90;6.68;;;19.60;99.90;;;;;;4237085;27;20217;-77
2022/11/30 08:07:13;;;;;;;8.60;6.60;;;19.60;99.90;;;;;;4239310;27;20221;-77
2022/11/30 08:09:15;;;;;;;8.05;6.28;;;19.60;99.90;;;;;;4234743;27;20623;-77
2022/11/30 08:11:19;;;;;;;8.57;6.90;;;19.60;99.90;;;;;;4243459;27;20641;-78
2022/11/30 08:13:23;;;;;;;8.55;6.65;;;19.60;99.90;;;;;;4237604;27;20205;-79
2022/11/30 08:15:27;;;;;;;8.43;6.40;;;19.70;99.90;;;;;;4234692;27;20290;-78
2022/11/30 08:17:29;;;;;;;8.18;6.28;;;19.60;99.90;;;;;;4232408;27;20209;-78
2022/11/30 08:19:31;;;;;;;7.78;6.20;;;19.70;99.90;;;;;;4235631;27;20262;-78
2022/11/30 08:21:34;;;;;;;6.82;5.72;;;19.70;99.90;;;;;;4245799;27;20297;-80
2022/11/30 08:23:38;;;;;;;7.50;5.40;;;19.70;99.90;;;;;;4240940;27;20217;-79
2022/11/30 08:25:41;;;;;;;7.25;5.35;;;19.70;99.90;;;;;;4230480;27;20221;-79
2022/11/30 08:27:43;;;;;;;6.60;5.90;;;19.80;99.90;;;;;;4232575;27;20661;-78
2022/11/30 08:29:45;;;;;;;7.45;5.85;;;19.80;99.90;;;;;;4236310;27;20217;-79
2022/11/30 08:31:49;;;;;;;8.60;5.68;;;19.80;99.90;;;;;;4245050;27;20275;-77
2022/11/30 08:33:56;;;;;;;6.97;5.20;;;19.80;99.90;;;;;;4245539;27;20262;-79
2022/11/30 08:36:06;;;;;;;5.80;5.03;;;19.90;99.90;;;;;;4237806;27;20278;-80
2022/11/30 08:38:08;;;;;;;9.80;5.97;;;19.90;99.90;;;;;;4244906;27;20249;-79
2022/11/30 08:40:11;;;;;;;6.85;5.47;;;19.90;99.90;;;;;;4231690;27;20250;-79
2022/11/30 08:42:14;;;;;;;6.78;5.13;;;19.90;99.90;;;;;;4235518;27;20217;-79
2022/11/30 08:44:16;;;;;;;7.15;5.28;;;19.90;99.90;;;;;;4229526;27;20274;-78
2022/11/30 08:46:21;;;;;;;5.93;4.72;;;19.90;99.90;;;;;;4241330;27;20266;-79
2022/11/30 08:48:25;;;;;;;6.15;4.82;;;19.90;99.90;;;;;;4243691;27;20981;-79
2022/11/30 08:50:27;;;;;;;7.25;5.40;;;20.00;99.90;;;;;;4244050;27;20209;-79
2022/11/30 08:52:30;;;;;;;5.88;5.05;;;20.00;99.90;;;;;;4242267;27;20229;-78
2022/11/30 08:54:32;;;;;;;6.28;5.28;;;20.00;99.90;;;;;;4243588;27;20216;-78
2022/11/30 08:56:34;;;;;;;6.43;5.35;;;20.00;99.90;;;;;;4242795;27;20217;-78
2022/11/30 08:58:38;;;;;;;5.93;4.80;;;20.10;99.90;;;;;;4237186;27;20209;-78
2022/11/30 09:00:41;;;;;;;6.70;5.18;;;20.10;99.90;;;;;;4240777;27;20218;-79
2022/11/30 09:02:43;;;;;;;6.32;4.95;;;20.10;99.90;;;;;;4238619;27;20255;-78
2022/11/30 09:04:49;;;;;;;7.18;5.03;;;20.10;99.90;;;;;;4235464;27;20242;-79
2022/11/30 09:06:52;;;;;;;5.60;4.68;;;20.10;99.90;;;;;;4239304;27;20220;-78
2022/11/30 09:08:56;;;;;;;5.75;4.75;;;20.10;99.90;;;;;;4242921;27;20209;-79
2022/11/30 09:10:59;;;;;;;7.40;6.00;;;20.20;99.90;;;;;;4238067;27;20213;-79
2022/11/30 09:13:01;;;;;;;5.57;5.00;;;20.20;99.90;;;;;;4234284;27;20229;-78
2022/11/30 09:15:04;;;;;;;6.68;5.32;;;20.30;99.90;;;;;;4234474;27;20217;-78
2022/11/30 09:17:06;;;;;;;6.63;5.25;;;20.30;99.90;;;;;;4244170;27;20254;-78
2022/11/30 09:19:09;;;;;;;7.40;5.85;;;20.20;99.90;;;;;;4233415;27;20217;-78
2022/11/30 09:21:15;;;;;;;6.38;4.93;;;20.20;99.90;;;;;;4226674;27;20696;-79
2022/11/30 09:23:18;;;;;;;6.97;5.03;;;20.30;99.90;;;;;;4232480;28;20306;-79
2022/11/30 09:25:20;;;;;;;10.05;5.53;;;20.30;99.90;;;;;;4240136;27;20217;-79
2022/11/30 09:27:23;;;;;;;7.50;5.93;;;20.30;99.90;;;;;;4241531;27;20214;-80
2022/11/30 09:29:26;;;;;;;6.13;5.30;;;20.30;99.90;;;;;;4240146;27;20217;-79
2022/11/30 09:31:28;;;;;;;6.32;5.30;;;20.30;99.90;;;;;;4242560;27;20217;-79
2022/11/30 09:33:31;;;;;;;6.82;5.45;;;20.30;99.90;;;;;;4242592;27;20289;-79
2022/11/30 09:35:33;;;;;;;7.82;5.18;;;20.40;99.90;;;;;;4233609;27;20272;-80
2022/11/30 09:37:37;;;;;;;6.47;4.65;;;20.40;99.90;;;;;;4241465;27;20375;-79
2022/11/30 09:39:40;;;;;;;5.30;4.75;;;20.40;99.90;;;;;;4240138;27;20266;-79
2022/11/30 09:42:17;;;;;;;7.07;5.32;;;20.40;99.90;;;;;;4243360;27;20209;-79
2022/11/30 09:44:26;;;;;;;6.88;4.97;;;20.40;99.90;;;;;;4212298;27;20561;-80
2022/11/30 09:46:36;;;;;;;6.80;5.40;;;20.50;99.90;;;;;;4237497;27;20213;-80
2022/11/30 09:48:54;;;;;;;5.32;4.45;;;20.50;99.90;;;;;;4241158;27;20713;-80
2022/11/30 09:51:04;;;;;;;6.30;4.80;;;20.50;99.90;;;;;;4237493;27;20221;-79
2022/11/30 09:53:15;;;;;;;5.75;4.75;;;20.60;99.90;;;;;;4243325;27;20236;-80
2022/11/30 09:55:25;;;;;;;6.55;5.10;;;20.60;99.90;;;;;;4238059;27;20636;-80
2022/11/30 09:57:31;;;;;;;5.75;5.07;;;20.60;99.90;;;;;;4237581;27;20216;-79
2022/11/30 09:59:37;;;;;;;7.78;4.90;;;20.70;99.90;;;;;;4243530;27;20273;-79
2022/11/30 10:01:40;;;;;;;6.43;4.80;;;20.60;99.90;;;;;;4236121;27;20213;-80
2022/11/30 10:03:45;;;;;;;6.50;4.97;;;20.70;99.90;;;;;;4233280;27;20650;-80
2022/11/30 10:05:51;;;;;;;6.63;5.28;;;20.70;99.90;;;;;;4236649;27;20217;-80
2022/11/30 10:08:16;;;;;;;5.53;4.65;;;20.70;99.90;;;;;;4241237;27;20262;-80
2022/11/30 10:10:29;;;;;;;5.90;4.82;;;20.70;99.90;;;;;;4240887;27;20225;-79
2022/11/30 10:12:36;;;;;;;5.47;4.80;;;20.70;99.90;;;;;;4239830;27;20278;-80
2022/11/30 10:15:08;;;;;;;6.20;4.53;;;20.70;99.90;;;;;;4241111;27;20263;-80
2022/11/30 10:17:29;;;;;;;5.60;5.00;;;20.80;99.90;;;;;;4235841;27;20209;-80
2022/11/30 10:19:49;;;;;;;6.53;4.55;;;20.80;99.90;;;;;;4237099;27;20213;-79
2022/11/30 10:22:03;;;;;;;5.30;4.80;;;20.80;99.90;;;;;;4239689;27;20293;-76
2022/11/30 10:24:18;;;;;;;5.53;4.65;;;20.80;99.90;;;;;;4247165;27;20221;-76
2022/11/30 10:26:27;;;;;;;5.57;4.75;;;20.80;99.90;;;;;;4235964;27;20340;-77
2022/11/30 10:28:42;;;;;;;5.65;4.43;;;20.80;99.90;;;;;;4244055;27;20601;-77
2022/11/30 10:30:45;;;;;;;5.43;4.60;;;20.80;99.90;;;;;;4237863;27;20209;-77
2022/11/30 10:32:51;;;;;;;6.50;4.65;;;20.90;99.90;;;;;;4246293;27;20232;-77
2022/11/30 10:34:57;;;;;;;6.00;4.75;;;20.80;99.90;;;;;;4243934;27;20220;-78
2022/11/30 10:37:03;;;;;;;5.40;4.15;;;20.90;99.90;;;;;;4244268;27;20583;-78
2022/11/30 10:39:16;;;;;;;5.13;4.60;;;20.90;99.90;;;;;;4242928;27;20221;-78
2022/11/30 10:41:22;;;;;;;5.07;4.43;;;20.90;99.90;;;;;;4242154;27;20270;-79
2022/11/30 10:43:31;;;;;;;5.43;4.38;;;20.90;99.90;;;;;;4239640;27;20261;-78
2022/11/30 10:45:37;;;;;;;6.13;4.55;;;20.90;99.90;;;;;;4235628;27;20288;-79
2022/11/30 10:47:46;;;;;;;5.95;4.82;;;20.90;99.90;;;;;;4234413;27;20214;-78